sensor_id;sensor_type;location;lat;lon;timestamp;P1;durP1;ratioP1;P2;durP2;ratioP2
22660;SDS011;11497;52.222;21.246;2023-08-01T00:00:25;7.03;;;4.72;;
22660;SDS011;11497;52.222;21.246;2023-08-01T00:03:13;7.60;;;4.88;;
22660;SDS011;11497;52.222;21.246;2023-08-01T00:05:41;10.82;;;4.88;;
22660;SDS011;11497;52.222;21.246;2023-08-01T00:08:11;8.45;;;5.05;;
22660;SDS011;11497;52.222;21.246;2023-08-01T00:10:40;7.70;;;4.32;;
22660;SDS011;11497;52.222;21.246;2023-08-01T00:13:08;10.32;;;4.80;;
22660;SDS011;11497;52.222;21.246;2023-08-01T00:15:36;6.57;;;4.28;;
22660;SDS011;11497;52.222;21.246;2023-08-01T00:18:03;6.07;;;4.38;;
22660;SDS011;11497;52.222;21.246;2023-08-01T00:20:31;6.13;;;4.18;;
22660;SDS011;11497;52.222;21.246;2023-08-01T00:22:59;9.80;;;4.57;;
22660;SDS011;11497;52.222;21.246;2023-08-01T00:25:26;8.48;;;4.60;;
22660;SDS011;11497;52.222;21.246;2023-08-01T00:27:54;8.25;;;4.70;;
22660;SDS011;11497;52.222;21.246;2023-08-01T00:30:22;5.47;;;4.47;;
22660;SDS011;11497;52.222;21.246;2023-08-01T00:32:49;8.65;;;4.68;;
22660;SDS011;11497;52.222;21.246;2023-08-01T00:35:18;6.45;;;4.53;;
22660;SDS011;11497;52.222;21.246;2023-08-01T00:37:46;6.50;;;4.30;;
22660;SDS011;11497;52.222;21.246;2023-08-01T00:40:13;9.00;;;4.97;;
22660;SDS011;11497;52.222;21.246;2023-08-01T00:42:43;10.13;;;4.85;;
22660;SDS011;11497;52.222;21.246;2023-08-01T00:45:10;6.80;;;4.32;;
22660;SDS011;11497;52.222;21.246;2023-08-01T00:47:38;7.90;;;4.15;;
22660;SDS011;11497;52.222;21.246;2023-08-01T00:50:07;6.32;;;4.28;;
22660;SDS011;11497;52.222;21.246;2023-08-01T00:52:34;8.40;;;4.90;;
22660;SDS011;11497;52.222;21.246;2023-08-01T00:55:02;7.18;;;4.60;;
22660;SDS011;11497;52.222;21.246;2023-08-01T00:57:30;8.02;;;4.40;;
22660;SDS011;11497;52.222;21.246;2023-08-01T00:59:58;7.68;;;4.63;;
22660;SDS011;11497;52.222;21.246;2023-08-01T01:02:25;7.22;;;4.60;;
22660;SDS011;11497;52.222;21.246;2023-08-01T01:04:53;7.57;;;4.88;;
22660;SDS011;11497;52.222;21.246;2023-08-01T01:07:21;12.40;;;4.82;;
22660;SDS011;11497;52.222;21.246;2023-08-01T01:09:50;8.68;;;5.03;;
22660;SDS011;11497;52.222;21.246;2023-08-01T01:12:17;9.60;;;4.72;;
22660;SDS011;11497;52.222;21.246;2023-08-01T01:14:45;10.00;;;5.07;;
22660;SDS011;11497;52.222;21.246;2023-08-01T01:17:13;7.53;;;4.88;;
22660;SDS011;11497;52.222;21.246;2023-08-01T01:19:41;7.32;;;4.97;;
22660;SDS011;11497;52.222;21.246;2023-08-01T01:22:09;7.45;;;5.00;;
22660;SDS011;11497;52.222;21.246;2023-08-01T01:24:37;7.13;;;4.70;;
22660;SDS011;11497;52.222;21.246;2023-08-01T01:27:07;7.97;;;5.22;;
22660;SDS011;11497;52.222;21.246;2023-08-01T01:29:35;6.28;;;4.88;;
22660;SDS011;11497;52.222;21.246;2023-08-01T01:32:03;9.75;;;4.78;;
22660;SDS011;11497;52.222;21.246;2023-08-01T01:34:30;6.88;;;4.78;;
22660;SDS011;11497;52.222;21.246;2023-08-01T01:36:58;7.45;;;4.30;;
22660;SDS011;11497;52.222;21.246;2023-08-01T01:39:26;7.35;;;4.70;;
22660;SDS011;11497;52.222;21.246;2023-08-01T01:41:53;7.88;;;4.85;;
22660;SDS011;11497;52.222;21.246;2023-08-01T01:44:21;9.63;;;4.63;;
22660;SDS011;11497;52.222;21.246;2023-08-01T01:46:49;6.72;;;4.53;;
22660;SDS011;11497;52.222;21.246;2023-08-01T01:49:17;8.18;;;4.75;;
22660;SDS011;11497;52.222;21.246;2023-08-01T01:51:44;9.70;;;4.90;;
22660;SDS011;11497;52.222;21.246;2023-08-01T01:54:12;10.18;;;5.10;;
22660;SDS011;11497;52.222;21.246;2023-08-01T01:56:39;9.48;;;4.65;;
22660;SDS011;11497;52.222;21.246;2023-08-01T01:59:08;5.22;;;4.32;;
22660;SDS011;11497;52.222;21.246;2023-08-01T02:01:35;10.27;;;5.35;;
22660;SDS011;11497;52.222;21.246;2023-08-01T02:04:04;11.43;;;5.15;;
22660;SDS011;11497;52.222;21.246;2023-08-01T02:06:32;7.97;;;5.22;;
22660;SDS011;11497;52.222;21.246;2023-08-01T02:09:00;8.52;;;5.10;;
22660;SDS011;11497;52.222;21.246;2023-08-01T02:11:29;11.88;;;4.93;;
22660;SDS011;11497;52.222;21.246;2023-08-01T02:13:57;8.43;;;5.65;;
22660;SDS011;11497;52.222;21.246;2023-08-01T02:16:24;8.65;;;4.80;;
22660;SDS011;11497;52.222;21.246;2023-08-01T02:18:52;8.05;;;4.90;;
22660;SDS011;11497;52.222;21.246;2023-08-01T02:21:20;9.50;;;5.10;;
22660;SDS011;11497;52.222;21.246;2023-08-01T02:23:47;8.75;;;5.05;;
22660;SDS011;11497;52.222;21.246;2023-08-01T02:26:15;8.88;;;4.70;;
22660;SDS011;11497;52.222;21.246;2023-08-01T02:28:43;8.10;;;5.10;;
22660;SDS011;11497;52.222;21.246;2023-08-01T02:31:10;9.07;;;5.00;;
22660;SDS011;11497;52.222;21.246;2023-08-01T02:33:38;8.75;;;4.78;;
22660;SDS011;11497;52.222;21.246;2023-08-01T02:36:06;12.82;;;5.68;;
22660;SDS011;11497;52.222;21.246;2023-08-01T02:38:34;8.65;;;5.05;;
22660;SDS011;11497;52.222;21.246;2023-08-01T02:41:01;10.50;;;4.93;;
22660;SDS011;11497;52.222;21.246;2023-08-01T02:43:29;10.15;;;5.43;;
22660;SDS011;11497;52.222;21.246;2023-08-01T02:45:57;7.45;;;5.18;;
22660;SDS011;11497;52.222;21.246;2023-08-01T02:48:27;8.45;;;4.80;;
22660;SDS011;11497;52.222;21.246;2023-08-01T02:50:54;10.85;;;5.35;;
22660;SDS011;11497;52.222;21.246;2023-08-01T02:53:22;7.38;;;4.72;;
22660;SDS011;11497;52.222;21.246;2023-08-01T02:55:49;8.85;;;5.15;;
22660;SDS011;11497;52.222;21.246;2023-08-01T02:58:17;9.05;;;5.28;;
22660;SDS011;11497;52.222;21.246;2023-08-01T03:00:45;8.65;;;5.55;;
22660;SDS011;11497;52.222;21.246;2023-08-01T03:03:14;9.48;;;4.88;;
22660;SDS011;11497;52.222;21.246;2023-08-01T03:05:42;6.53;;;4.78;;
22660;SDS011;11497;52.222;21.246;2023-08-01T03:08:10;8.07;;;4.72;;
22660;SDS011;11497;52.222;21.246;2023-08-01T03:10:37;11.18;;;5.32;;
22660;SDS011;11497;52.222;21.246;2023-08-01T03:13:05;7.05;;;5.25;;
22660;SDS011;11497;52.222;21.246;2023-08-01T03:15:33;5.82;;;4.70;;
22660;SDS011;11497;52.222;21.246;2023-08-01T03:18:01;8.48;;;4.60;;
22660;SDS011;11497;52.222;21.246;2023-08-01T03:20:29;6.45;;;4.78;;
22660;SDS011;11497;52.222;21.246;2023-08-01T03:22:57;9.57;;;4.85;;
22660;SDS011;11497;52.222;21.246;2023-08-01T03:25:24;8.45;;;4.88;;
22660;SDS011;11497;52.222;21.246;2023-08-01T03:27:54;8.27;;;5.47;;
22660;SDS011;11497;52.222;21.246;2023-08-01T03:30:22;7.00;;;4.70;;
22660;SDS011;11497;52.222;21.246;2023-08-01T03:32:50;7.47;;;4.68;;
22660;SDS011;11497;52.222;21.246;2023-08-01T03:35:17;6.90;;;5.05;;
22660;SDS011;11497;52.222;21.246;2023-08-01T03:37:45;7.05;;;4.60;;
22660;SDS011;11497;52.222;21.246;2023-08-01T03:40:13;9.18;;;4.80;;
22660;SDS011;11497;52.222;21.246;2023-08-01T03:42:41;9.23;;;4.60;;
22660;SDS011;11497;52.222;21.246;2023-08-01T03:45:10;8.77;;;4.50;;
22660;SDS011;11497;52.222;21.246;2023-08-01T03:47:39;8.82;;;4.40;;
22660;SDS011;11497;52.222;21.246;2023-08-01T03:50:06;7.30;;;4.18;;
22660;SDS011;11497;52.222;21.246;2023-08-01T03:52:34;8.43;;;4.63;;
22660;SDS011;11497;52.222;21.246;2023-08-01T03:55:02;7.00;;;4.13;;
22660;SDS011;11497;52.222;21.246;2023-08-01T03:57:29;11.52;;;4.82;;
22660;SDS011;11497;52.222;21.246;2023-08-01T04:00:01;6.53;;;4.25;;
22660;SDS011;11497;52.222;21.246;2023-08-01T04:02:38;8.63;;;4.30;;
22660;SDS011;11497;52.222;21.246;2023-08-01T04:05:05;10.43;;;4.45;;
22660;SDS011;11497;52.222;21.246;2023-08-01T04:07:33;7.88;;;4.68;;
22660;SDS011;11497;52.222;21.246;2023-08-01T04:10:01;7.68;;;4.93;;
22660;SDS011;11497;52.222;21.246;2023-08-01T04:12:31;5.97;;;4.30;;
22660;SDS011;11497;52.222;21.246;2023-08-01T04:14:59;6.47;;;4.00;;
22660;SDS011;11497;52.222;21.246;2023-08-01T04:17:27;5.68;;;4.13;;
22660;SDS011;11497;52.222;21.246;2023-08-01T04:19:56;6.38;;;4.40;;
22660;SDS011;11497;52.222;21.246;2023-08-01T04:22:24;6.78;;;4.18;;
22660;SDS011;11497;52.222;21.246;2023-08-01T04:24:51;5.70;;;3.88;;
22660;SDS011;11497;52.222;21.246;2023-08-01T04:27:20;5.80;;;4.10;;
22660;SDS011;11497;52.222;21.246;2023-08-01T04:29:48;7.75;;;4.43;;
22660;SDS011;11497;52.222;21.246;2023-08-01T04:32:16;7.90;;;4.50;;
22660;SDS011;11497;52.222;21.246;2023-08-01T04:34:43;11.48;;;4.20;;
22660;SDS011;11497;52.222;21.246;2023-08-01T04:37:11;11.73;;;4.03;;
22660;SDS011;11497;52.222;21.246;2023-08-01T04:39:39;6.93;;;3.60;;
22660;SDS011;11497;52.222;21.246;2023-08-01T04:42:06;9.45;;;3.90;;
22660;SDS011;11497;52.222;21.246;2023-08-01T04:44:34;6.35;;;3.90;;
22660;SDS011;11497;52.222;21.246;2023-08-01T04:47:02;6.43;;;3.95;;
22660;SDS011;11497;52.222;21.246;2023-08-01T04:49:29;9.25;;;3.95;;
22660;SDS011;11497;52.222;21.246;2023-08-01T04:51:57;5.13;;;3.55;;
22660;SDS011;11497;52.222;21.246;2023-08-01T04:54:25;7.70;;;4.22;;
22660;SDS011;11497;52.222;21.246;2023-08-01T04:56:53;9.35;;;4.05;;
22660;SDS011;11497;52.222;21.246;2023-08-01T04:59:20;7.80;;;3.97;;
22660;SDS011;11497;52.222;21.246;2023-08-01T05:01:48;6.07;;;3.65;;
22660;SDS011;11497;52.222;21.246;2023-08-01T05:04:15;5.53;;;3.65;;
22660;SDS011;11497;52.222;21.246;2023-08-01T05:06:43;7.82;;;3.75;;
22660;SDS011;11497;52.222;21.246;2023-08-01T05:09:11;5.63;;;3.58;;
22660;SDS011;11497;52.222;21.246;2023-08-01T05:11:39;5.15;;;3.30;;
22660;SDS011;11497;52.222;21.246;2023-08-01T05:14:06;6.50;;;4.03;;
22660;SDS011;11497;52.222;21.246;2023-08-01T05:16:34;8.90;;;3.30;;
22660;SDS011;11497;52.222;21.246;2023-08-01T05:19:02;5.47;;;3.75;;
22660;SDS011;11497;52.222;21.246;2023-08-01T05:21:30;7.07;;;3.97;;
22660;SDS011;11497;52.222;21.246;2023-08-01T05:23:57;9.23;;;3.85;;
22660;SDS011;11497;52.222;21.246;2023-08-01T05:26:25;7.40;;;3.45;;
22660;SDS011;11497;52.222;21.246;2023-08-01T05:28:52;7.05;;;3.25;;
22660;SDS011;11497;52.222;21.246;2023-08-01T05:31:20;9.18;;;3.60;;
22660;SDS011;11497;52.222;21.246;2023-08-01T05:33:48;6.65;;;3.85;;
22660;SDS011;11497;52.222;21.246;2023-08-01T05:36:16;9.20;;;3.97;;
22660;SDS011;11497;52.222;21.246;2023-08-01T05:38:43;5.78;;;3.17;;
22660;SDS011;11497;52.222;21.246;2023-08-01T05:41:11;8.20;;;3.70;;
22660;SDS011;11497;52.222;21.246;2023-08-01T05:43:38;6.38;;;3.15;;
22660;SDS011;11497;52.222;21.246;2023-08-01T05:46:06;13.40;;;3.60;;
22660;SDS011;11497;52.222;21.246;2023-08-01T05:48:34;6.10;;;3.40;;
22660;SDS011;11497;52.222;21.246;2023-08-01T05:51:01;8.10;;;3.75;;
22660;SDS011;11497;52.222;21.246;2023-08-01T05:53:29;5.10;;;3.58;;
22660;SDS011;11497;52.222;21.246;2023-08-01T05:55:57;5.30;;;3.38;;
22660;SDS011;11497;52.222;21.246;2023-08-01T05:58:24;4.32;;;2.88;;
22660;SDS011;11497;52.222;21.246;2023-08-01T06:00:55;5.68;;;3.25;;
22660;SDS011;11497;52.222;21.246;2023-08-01T06:03:23;6.90;;;3.30;;
22660;SDS011;11497;52.222;21.246;2023-08-01T06:05:51;5.53;;;3.30;;
22660;SDS011;11497;52.222;21.246;2023-08-01T06:08:18;6.35;;;3.40;;
22660;SDS011;11497;52.222;21.246;2023-08-01T06:10:46;7.18;;;3.17;;
22660;SDS011;11497;52.222;21.246;2023-08-01T06:13:14;6.60;;;3.25;;
22660;SDS011;11497;52.222;21.246;2023-08-01T06:15:42;6.63;;;2.90;;
22660;SDS011;11497;52.222;21.246;2023-08-01T06:18:09;6.93;;;3.40;;
22660;SDS011;11497;52.222;21.246;2023-08-01T06:20:38;7.30;;;3.33;;
22660;SDS011;11497;52.222;21.246;2023-08-01T06:23:06;12.85;;;3.28;;
22660;SDS011;11497;52.222;21.246;2023-08-01T06:25:34;5.55;;;2.90;;
22660;SDS011;11497;52.222;21.246;2023-08-01T06:28:01;6.63;;;3.28;;
22660;SDS011;11497;52.222;21.246;2023-08-01T06:30:29;5.20;;;3.03;;
22660;SDS011;11497;52.222;21.246;2023-08-01T06:32:57;6.47;;;3.42;;
22660;SDS011;11497;52.222;21.246;2023-08-01T06:35:25;8.48;;;3.08;;
22660;SDS011;11497;52.222;21.246;2023-08-01T06:37:53;7.30;;;3.20;;
22660;SDS011;11497;52.222;21.246;2023-08-01T06:40:20;6.20;;;3.88;;
22660;SDS011;11497;52.222;21.246;2023-08-01T06:42:48;8.25;;;3.40;;
22660;SDS011;11497;52.222;21.246;2023-08-01T06:45:16;4.93;;;2.85;;
22660;SDS011;11497;52.222;21.246;2023-08-01T06:47:44;8.65;;;3.20;;
22660;SDS011;11497;52.222;21.246;2023-08-01T06:50:11;6.30;;;2.88;;
22660;SDS011;11497;52.222;21.246;2023-08-01T06:52:39;4.32;;;3.30;;
22660;SDS011;11497;52.222;21.246;2023-08-01T06:55:07;8.02;;;3.42;;
22660;SDS011;11497;52.222;21.246;2023-08-01T06:57:35;9.70;;;3.33;;
22660;SDS011;11497;52.222;21.246;2023-08-01T07:00:02;9.75;;;3.40;;
22660;SDS011;11497;52.222;21.246;2023-08-01T07:02:30;7.45;;;3.10;;
22660;SDS011;11497;52.222;21.246;2023-08-01T07:04:59;6.10;;;3.50;;
22660;SDS011;11497;52.222;21.246;2023-08-01T07:07:26;4.97;;;3.10;;
22660;SDS011;11497;52.222;21.246;2023-08-01T07:09:55;7.80;;;3.40;;
22660;SDS011;11497;52.222;21.246;2023-08-01T07:12:23;3.83;;;3.05;;
22660;SDS011;11497;52.222;21.246;2023-08-01T07:14:51;6.45;;;3.40;;
22660;SDS011;11497;52.222;21.246;2023-08-01T07:17:19;4.53;;;2.85;;
22660;SDS011;11497;52.222;21.246;2023-08-01T07:19:46;5.75;;;3.10;;
22660;SDS011;11497;52.222;21.246;2023-08-01T07:22:14;7.43;;;3.10;;
22660;SDS011;11497;52.222;21.246;2023-08-01T07:24:42;5.35;;;3.15;;
22660;SDS011;11497;52.222;21.246;2023-08-01T07:27:09;7.05;;;3.28;;
22660;SDS011;11497;52.222;21.246;2023-08-01T07:29:39;8.07;;;3.33;;
22660;SDS011;11497;52.222;21.246;2023-08-01T07:32:06;5.85;;;2.60;;
22660;SDS011;11497;52.222;21.246;2023-08-01T07:34:34;5.40;;;3.17;;
22660;SDS011;11497;52.222;21.246;2023-08-01T07:37:01;7.28;;;2.95;;
22660;SDS011;11497;52.222;21.246;2023-08-01T07:39:29;6.30;;;3.40;;
22660;SDS011;11497;52.222;21.246;2023-08-01T07:41:57;6.22;;;3.15;;
22660;SDS011;11497;52.222;21.246;2023-08-01T07:44:25;5.88;;;3.13;;
22660;SDS011;11497;52.222;21.246;2023-08-01T07:46:52;5.05;;;3.22;;
22660;SDS011;11497;52.222;21.246;2023-08-01T07:49:20;5.82;;;3.10;;
22660;SDS011;11497;52.222;21.246;2023-08-01T07:51:48;4.18;;;2.80;;
22660;SDS011;11497;52.222;21.246;2023-08-01T07:54:15;5.32;;;3.00;;
22660;SDS011;11497;52.222;21.246;2023-08-01T07:56:43;4.45;;;3.00;;
22660;SDS011;11497;52.222;21.246;2023-08-01T07:59:15;5.75;;;2.97;;
22660;SDS011;11497;52.222;21.246;2023-08-01T08:01:43;6.70;;;3.22;;
22660;SDS011;11497;52.222;21.246;2023-08-01T08:04:11;7.15;;;3.42;;
22660;SDS011;11497;52.222;21.246;2023-08-01T08:06:40;4.90;;;3.05;;
22660;SDS011;11497;52.222;21.246;2023-08-01T08:09:08;5.20;;;3.22;;
22660;SDS011;11497;52.222;21.246;2023-08-01T08:11:36;7.55;;;3.00;;
22660;SDS011;11497;52.222;21.246;2023-08-01T08:14:04;7.40;;;3.65;;
22660;SDS011;11497;52.222;21.246;2023-08-01T08:16:32;4.68;;;2.97;;
22660;SDS011;11497;52.222;21.246;2023-08-01T08:19:03;6.38;;;3.22;;
22660;SDS011;11497;52.222;21.246;2023-08-01T08:21:31;5.55;;;2.95;;
22660;SDS011;11497;52.222;21.246;2023-08-01T08:24:00;4.18;;;3.25;;
22660;SDS011;11497;52.222;21.246;2023-08-01T08:26:27;4.28;;;3.10;;
22660;SDS011;11497;52.222;21.246;2023-08-01T08:28:55;8.77;;;3.33;;
22660;SDS011;11497;52.222;21.246;2023-08-01T08:31:24;4.57;;;3.00;;
22660;SDS011;11497;52.222;21.246;2023-08-01T08:33:52;4.70;;;3.22;;
22660;SDS011;11497;52.222;21.246;2023-08-01T08:36:20;5.93;;;3.10;;
22660;SDS011;11497;52.222;21.246;2023-08-01T08:38:48;9.88;;;3.33;;
22660;SDS011;11497;52.222;21.246;2023-08-01T08:41:19;4.13;;;2.92;;
22660;SDS011;11497;52.222;21.246;2023-08-01T08:43:48;7.63;;;3.00;;
22660;SDS011;11497;52.222;21.246;2023-08-01T08:46:16;3.88;;;2.90;;
22660;SDS011;11497;52.222;21.246;2023-08-01T08:48:44;4.10;;;2.90;;
22660;SDS011;11497;52.222;21.246;2023-08-01T08:51:13;6.38;;;3.25;;
22660;SDS011;11497;52.222;21.246;2023-08-01T08:53:41;6.18;;;3.10;;
22660;SDS011;11497;52.222;21.246;2023-08-01T08:56:09;6.10;;;3.60;;
22660;SDS011;11497;52.222;21.246;2023-08-01T08:58:38;4.30;;;3.13;;
22660;SDS011;11497;52.222;21.246;2023-08-01T09:01:06;6.55;;;3.70;;
22660;SDS011;11497;52.222;21.246;2023-08-01T09:03:35;5.65;;;3.47;;
22660;SDS011;11497;52.222;21.246;2023-08-01T09:06:14;6.18;;;3.70;;
22660;SDS011;11497;52.222;21.246;2023-08-01T09:11:46;4.70;;;3.38;;
22660;SDS011;11497;52.222;21.246;2023-08-01T09:14:15;4.13;;;3.40;;
22660;SDS011;11497;52.222;21.246;2023-08-01T09:16:43;6.65;;;3.33;;
22660;SDS011;11497;52.222;21.246;2023-08-01T09:19:15;6.60;;;3.50;;
22660;SDS011;11497;52.222;21.246;2023-08-01T09:21:43;5.75;;;3.45;;
22660;SDS011;11497;52.222;21.246;2023-08-01T09:24:12;4.38;;;3.40;;
22660;SDS011;11497;52.222;21.246;2023-08-01T09:26:40;11.27;;;3.40;;
22660;SDS011;11497;52.222;21.246;2023-08-01T09:29:09;6.47;;;3.33;;
22660;SDS011;11497;52.222;21.246;2023-08-01T09:31:40;5.70;;;3.88;;
22660;SDS011;11497;52.222;21.246;2023-08-01T09:34:21;5.32;;;3.55;;
22660;SDS011;11497;52.222;21.246;2023-08-01T09:36:49;6.57;;;3.60;;
22660;SDS011;11497;52.222;21.246;2023-08-01T09:39:20;5.78;;;3.10;;
22660;SDS011;11497;52.222;21.246;2023-08-01T09:41:58;6.05;;;3.20;;
22660;SDS011;11497;52.222;21.246;2023-08-01T09:44:26;5.55;;;3.70;;
22660;SDS011;11497;52.222;21.246;2023-08-01T09:46:55;6.05;;;3.60;;
22660;SDS011;11497;52.222;21.246;2023-08-01T09:49:23;3.58;;;3.10;;
22660;SDS011;11497;52.222;21.246;2023-08-01T09:51:51;10.73;;;4.15;;
22660;SDS011;11497;52.222;21.246;2023-08-01T09:54:18;9.18;;;3.60;;
22660;SDS011;11497;52.222;21.246;2023-08-01T09:56:48;4.90;;;3.28;;
22660;SDS011;11497;52.222;21.246;2023-08-01T09:59:20;8.00;;;3.30;;
22660;SDS011;11497;52.222;21.246;2023-08-01T10:01:48;6.15;;;3.60;;
22660;SDS011;11497;52.222;21.246;2023-08-01T10:04:23;11.15;;;3.85;;
22660;SDS011;11497;52.222;21.246;2023-08-01T10:06:57;5.55;;;3.47;;
22660;SDS011;11497;52.222;21.246;2023-08-01T10:09:26;5.80;;;3.53;;
22660;SDS011;11497;52.222;21.246;2023-08-01T10:11:56;4.60;;;3.63;;
22660;SDS011;11497;52.222;21.246;2023-08-01T10:14:24;5.40;;;3.38;;
22660;SDS011;11497;52.222;21.246;2023-08-01T10:16:52;4.68;;;3.42;;
22660;SDS011;11497;52.222;21.246;2023-08-01T10:19:22;5.72;;;3.30;;
22660;SDS011;11497;52.222;21.246;2023-08-01T10:21:50;3.60;;;3.00;;
22660;SDS011;11497;52.222;21.246;2023-08-01T10:24:21;4.07;;;3.28;;
22660;SDS011;11497;52.222;21.246;2023-08-01T10:26:52;7.32;;;3.65;;
22660;SDS011;11497;52.222;21.246;2023-08-01T10:29:19;4.80;;;3.30;;
22660;SDS011;11497;52.222;21.246;2023-08-01T10:31:51;5.05;;;3.20;;
22660;SDS011;11497;52.222;21.246;2023-08-01T10:34:19;4.22;;;3.33;;
22660;SDS011;11497;52.222;21.246;2023-08-01T10:36:54;4.57;;;3.40;;
22660;SDS011;11497;52.222;21.246;2023-08-01T10:39:23;4.55;;;3.30;;
22660;SDS011;11497;52.222;21.246;2023-08-01T10:42:00;5.13;;;3.10;;
22660;SDS011;11497;52.222;21.246;2023-08-01T10:44:28;6.05;;;3.40;;
22660;SDS011;11497;52.222;21.246;2023-08-01T10:47:01;7.40;;;3.60;;
22660;SDS011;11497;52.222;21.246;2023-08-01T10:52:00;4.63;;;3.33;;
22660;SDS011;11497;52.222;21.246;2023-08-01T10:54:28;6.00;;;3.50;;
22660;SDS011;11497;52.222;21.246;2023-08-01T10:56:56;5.78;;;3.60;;
22660;SDS011;11497;52.222;21.246;2023-08-01T10:59:28;6.20;;;3.95;;
22660;SDS011;11497;52.222;21.246;2023-08-01T11:01:57;7.05;;;3.55;;
22660;SDS011;11497;52.222;21.246;2023-08-01T11:04:29;5.40;;;3.30;;
22660;SDS011;11497;52.222;21.246;2023-08-01T11:06:56;5.22;;;3.60;;
22660;SDS011;11497;52.222;21.246;2023-08-01T11:09:25;7.60;;;3.90;;
22660;SDS011;11497;52.222;21.246;2023-08-01T11:11:54;9.10;;;4.03;;
22660;SDS011;11497;52.222;21.246;2023-08-01T11:14:22;5.93;;;3.67;;
22660;SDS011;11497;52.222;21.246;2023-08-01T11:16:50;7.28;;;4.30;;
22660;SDS011;11497;52.222;21.246;2023-08-01T11:19:18;6.30;;;4.32;;
22660;SDS011;11497;52.222;21.246;2023-08-01T11:21:47;5.60;;;4.15;;
22660;SDS011;11497;52.222;21.246;2023-08-01T11:24:15;7.32;;;4.20;;
22660;SDS011;11497;52.222;21.246;2023-08-01T11:26:43;7.28;;;4.15;;
22660;SDS011;11497;52.222;21.246;2023-08-01T11:29:11;7.03;;;3.95;;
22660;SDS011;11497;52.222;21.246;2023-08-01T11:31:39;5.82;;;3.95;;
22660;SDS011;11497;52.222;21.246;2023-08-01T11:34:10;5.07;;;4.05;;
22660;SDS011;11497;52.222;21.246;2023-08-01T11:36:38;10.10;;;4.68;;
22660;SDS011;11497;52.222;21.246;2023-08-01T11:39:06;8.40;;;4.72;;
22660;SDS011;11497;52.222;21.246;2023-08-01T11:41:34;6.70;;;4.00;;
22660;SDS011;11497;52.222;21.246;2023-08-01T11:44:02;7.63;;;4.63;;
22660;SDS011;11497;52.222;21.246;2023-08-01T11:46:31;6.03;;;4.32;;
22660;SDS011;11497;52.222;21.246;2023-08-01T11:48:59;6.95;;;4.53;;
22660;SDS011;11497;52.222;21.246;2023-08-01T11:51:28;8.40;;;3.95;;
22660;SDS011;11497;52.222;21.246;2023-08-01T11:54:02;9.20;;;4.60;;
22660;SDS011;11497;52.222;21.246;2023-08-01T11:56:31;8.68;;;4.82;;
22660;SDS011;11497;52.222;21.246;2023-08-01T11:58:58;7.68;;;4.55;;
22660;SDS011;11497;52.222;21.246;2023-08-01T12:01:26;6.82;;;4.68;;
22660;SDS011;11497;52.222;21.246;2023-08-01T12:03:55;7.28;;;4.38;;
22660;SDS011;11497;52.222;21.246;2023-08-01T12:06:25;6.95;;;4.03;;
22660;SDS011;11497;52.222;21.246;2023-08-01T12:08:53;6.03;;;4.18;;
22660;SDS011;11497;52.222;21.246;2023-08-01T12:14:06;5.63;;;4.30;;
22660;SDS011;11497;52.222;21.246;2023-08-01T12:16:36;7.75;;;4.68;;
22660;SDS011;11497;52.222;21.246;2023-08-01T12:19:05;10.05;;;4.47;;
22660;SDS011;11497;52.222;21.246;2023-08-01T12:21:33;7.07;;;4.07;;
22660;SDS011;11497;52.222;21.246;2023-08-01T12:24:02;8.27;;;4.00;;
22660;SDS011;11497;52.222;21.246;2023-08-01T12:26:30;5.03;;;3.30;;
22660;SDS011;11497;52.222;21.246;2023-08-01T12:28:58;6.88;;;3.47;;
22660;SDS011;11497;52.222;21.246;2023-08-01T12:31:25;5.10;;;3.85;;
22660;SDS011;11497;52.222;21.246;2023-08-01T12:33:53;5.88;;;3.58;;
22660;SDS011;11497;52.222;21.246;2023-08-01T12:36:21;3.90;;;3.33;;
22660;SDS011;11497;52.222;21.246;2023-08-01T12:38:50;5.93;;;3.78;;
22660;SDS011;11497;52.222;21.246;2023-08-01T12:41:18;3.65;;;3.25;;
22660;SDS011;11497;52.222;21.246;2023-08-01T12:43:45;6.95;;;3.95;;
22660;SDS011;11497;52.222;21.246;2023-08-01T12:46:13;5.03;;;3.38;;
22660;SDS011;11497;52.222;21.246;2023-08-01T12:48:42;5.75;;;3.70;;
22660;SDS011;11497;52.222;21.246;2023-08-01T12:51:11;6.13;;;3.45;;
22660;SDS011;11497;52.222;21.246;2023-08-01T12:53:41;6.70;;;4.28;;
22660;SDS011;11497;52.222;21.246;2023-08-01T12:56:12;5.13;;;3.53;;
22660;SDS011;11497;52.222;21.246;2023-08-01T12:58:40;5.65;;;3.58;;
22660;SDS011;11497;52.222;21.246;2023-08-01T13:01:08;6.28;;;3.80;;
22660;SDS011;11497;52.222;21.246;2023-08-01T13:03:36;5.97;;;3.38;;
22660;SDS011;11497;52.222;21.246;2023-08-01T13:06:04;5.70;;;3.38;;
22660;SDS011;11497;52.222;21.246;2023-08-01T13:08:31;6.45;;;3.65;;
22660;SDS011;11497;52.222;21.246;2023-08-01T13:10:59;4.68;;;3.20;;
22660;SDS011;11497;52.222;21.246;2023-08-01T13:13:29;6.18;;;3.35;;
22660;SDS011;11497;52.222;21.246;2023-08-01T13:15:57;7.15;;;3.38;;
22660;SDS011;11497;52.222;21.246;2023-08-01T13:18:24;8.00;;;3.72;;
22660;SDS011;11497;52.222;21.246;2023-08-01T13:20:52;6.85;;;3.55;;
22660;SDS011;11497;52.222;21.246;2023-08-01T13:23:20;5.18;;;3.60;;
22660;SDS011;11497;52.222;21.246;2023-08-01T13:25:48;7.68;;;3.63;;
22660;SDS011;11497;52.222;21.246;2023-08-01T13:28:16;6.00;;;3.67;;
22660;SDS011;11497;52.222;21.246;2023-08-01T13:30:43;6.05;;;3.85;;
22660;SDS011;11497;52.222;21.246;2023-08-01T13:33:11;4.85;;;3.47;;
22660;SDS011;11497;52.222;21.246;2023-08-01T13:35:38;5.70;;;3.58;;
22660;SDS011;11497;52.222;21.246;2023-08-01T13:38:06;7.10;;;3.70;;
22660;SDS011;11497;52.222;21.246;2023-08-01T13:40:34;6.60;;;3.90;;
22660;SDS011;11497;52.222;21.246;2023-08-01T13:43:02;5.68;;;3.88;;
22660;SDS011;11497;52.222;21.246;2023-08-01T13:45:30;9.13;;;4.20;;
22660;SDS011;11497;52.222;21.246;2023-08-01T13:47:59;5.07;;;3.80;;
22660;SDS011;11497;52.222;21.246;2023-08-01T13:50:28;6.88;;;3.70;;
22660;SDS011;11497;52.222;21.246;2023-08-01T13:52:58;3.95;;;3.53;;
22660;SDS011;11497;52.222;21.246;2023-08-01T13:55:25;7.35;;;4.22;;
22660;SDS011;11497;52.222;21.246;2023-08-01T13:57:54;4.97;;;3.95;;
22660;SDS011;11497;52.222;21.246;2023-08-01T14:00:21;6.47;;;4.32;;
22660;SDS011;11497;52.222;21.246;2023-08-01T14:02:50;6.68;;;3.95;;
22660;SDS011;11497;52.222;21.246;2023-08-01T14:05:18;5.78;;;4.10;;
22660;SDS011;11497;52.222;21.246;2023-08-01T14:07:47;9.52;;;4.05;;
22660;SDS011;11497;52.222;21.246;2023-08-01T14:10:14;6.68;;;4.63;;
22660;SDS011;11497;52.222;21.246;2023-08-01T14:12:47;7.32;;;4.35;;
22660;SDS011;11497;52.222;21.246;2023-08-01T14:15:15;10.18;;;4.55;;
22660;SDS011;11497;52.222;21.246;2023-08-01T14:17:43;6.55;;;4.03;;
22660;SDS011;11497;52.222;21.246;2023-08-01T14:20:11;5.13;;;4.05;;
22660;SDS011;11497;52.222;21.246;2023-08-01T14:22:41;6.95;;;4.00;;
22660;SDS011;11497;52.222;21.246;2023-08-01T14:25:12;5.35;;;4.20;;
22660;SDS011;11497;52.222;21.246;2023-08-01T14:27:40;6.00;;;4.07;;
22660;SDS011;11497;52.222;21.246;2023-08-01T14:30:08;8.75;;;4.40;;
22660;SDS011;11497;52.222;21.246;2023-08-01T14:32:36;6.30;;;4.60;;
22660;SDS011;11497;52.222;21.246;2023-08-01T14:35:05;6.22;;;4.22;;
22660;SDS011;11497;52.222;21.246;2023-08-01T14:37:34;5.57;;;4.30;;
22660;SDS011;11497;52.222;21.246;2023-08-01T14:40:03;8.13;;;4.90;;
22660;SDS011;11497;52.222;21.246;2023-08-01T14:42:31;7.07;;;4.07;;
22660;SDS011;11497;52.222;21.246;2023-08-01T14:44:58;5.90;;;4.28;;
22660;SDS011;11497;52.222;21.246;2023-08-01T14:47:26;7.95;;;4.63;;